Aérodrome :
LOGIN :

S'inscrire | Disclaimer

   EN    FR    IT 

 










Légende :    VFR   VFR Marginal   IFR   IFR Intensif   IFR Très Intensif
Visi : 
Plafond : 
>= 8 km
>= 3000ft
5 à 8 km
1000 à 3000 ft
1500m à 5 km
500 à 1000 ft
800 à 1500m
200 à 500 ft
< 800m
< 200 ft
Symboles :   Orages  Brouillard  Fortes neiges  Fortes précipitations  Vent > 20 kt
SIGMETs :   Divers  Orages  Givrage  Turbulence  Onde Orograph.  Cendres Volcan.






- Altitude de l'aérodrome : 1682 ft
- Code IATA : VIT


LEVT - Vitoria Gasteiz

DERNIER METAR :
  • 270330Z 21018KT 9999 SCT035 08/04 Q1020

METARs EXPIRÉS :
  • 270300Z 22023KT 9999 SCT035 08/04 Q1020
  • 270230Z 22019KT 9999 SCT030 08/04 Q1020
  • 270200Z 22014KT 9999 FEW030 08/03 Q1020
  • 270130Z 22018KT 9999 FEW030 08/03 Q1020
  • 270100Z 23009KT 170V280 9999 FEW030 08/03 Q1021

TAF TAF LEVT
Valide du 27 à 00h jusqu'au 28 à 00h UTC


262300Z 2700/2724 24012KT 9999 FEW030 TX09/2716Z TN04/2701Z
PROB30
TEMPO 2700/2709 20015G25KT
TEMPO 2709/2724 22016G28KT



MET'MAP, la Météo Aéronautique d'un coup d'oeil ! - Copyright ORBIFLY Décembre 2007 - Disclaimer

ORBIFLY MET'MAP TEAM :

Programmation & Développement : Alexandra Zaïnal
Sur une idée originale de : Baudouin d'Aumeries
Assistance à la programmation : Marc-Olivier Méhu
Soutien technique & logistique : Manuel Goepfert

Contact : metmap@orbifly.com




SOURCES & CREDITS :

   NOAA